Saturday, May 26, 2018, 12:38 AM GMT
Back to Local

CWVU, Brier Island, N. S.

Location: , , Canada Lat: 44.286
Local Time: 12:38 AM GMT ( 0:38 GMT) Lon: -66.347
Time Zone: GMT Elev: 52 ft

Show me the last for .
Show Coded

Time T Td Feel RH Dir Speed Gust Alt SLP Vis Weather Sky Remarks
2018-05-26 00:00 57 47 - 68 220° 15 23 - 29.63 0 Peak wind: 27 mph (24 kts) from 220° at 03 min
2018-05-25 23:00 57 48 - 70 210° 17 26 - 29.62 0 Peak wind: 29 mph (26 kts) from 210° at 48 min
2018-05-25 22:00 58 47 - 68 220° 17 28 - 29.62 0 Peak wind: 28 mph (25 kts) from 210° at 13 min
2018-05-25 21:00 59 48 - 65 220° 17 30 - 29.62 0 Peak wind: 29 mph (26 kts) from 240° at 50 min
2018-05-25 20:00 60 48 - 64 220° 17 28 - 29.64 0 Peak wind: 27 mph (24 kts) from 210° at 59 min
2018-05-25 19:00 62 49 - 61 200° 14 28 - 29.67 0 Peak wind: 27 mph (24 kts) from 200° at 54 min
2018-05-25 18:00 64 49 - 59 210° 10 22 - 29.68 0 Peak wind: 23 mph (20 kts) from 190° at 13 min
2018-05-25 17:00 60 49 - 68 220° 13 21 - 29.71 0 Peak wind: 23 mph (20 kts) from 210° at 00 min
2018-05-25 16:00 61 50 - 67 220° 14 23 - 29.72 0 Peak wind: 23 mph (20 kts) from 210° at 54 min
2018-05-25 15:00 57 49 - 74 220° 12 23 - 29.75 0 Peak wind: 23 mph (20 kts) from 230° at 58 min
2018-05-25 14:00 54 49 - 82 210° 8 - - 29.78 0 Peak wind: 19 mph (17 kts) from 220° at 28 min
2018-05-25 13:00 52 48 - 86 210° 7 - - 29.79 0 Peak wind: 20 mph (18 kts) from 190° at 01 min
2018-05-25 12:00 51 48 - 89 190° 14 21 - 29.80 0 Peak wind: 23 mph (20 kts) from 190° at 46 min
2018-05-25 11:00 49 48 45 94 170° 12 - - 29.83 0 None
2018-05-25 10:00 48 47 41 95 170° 13 20 - 29.87 0 Peak wind: 19 mph (17 kts) from 160° at 35 min
2018-05-25 09:00 47 45 41 94 160° 13 - - 29.89 0 None
2018-05-25 08:00 47 44 41 90 170° 13 - - 29.94 0 Peak wind: 19 mph (17 kts) from 160° at 46 min
2018-05-25 07:00 47 44 39 90 170° 14 20 - 29.96 0 Peak wind: 19 mph (17 kts) from 160° at 35 min
2018-05-25 06:00 46 44 41 91 170° 10 - - 30.00 0 None
2018-05-25 05:00 47 43 43 87 180° 8 - - 30.04 0 None
2018-05-25 04:00 47 43 43 84 190° 9 - - 30.06 0 None
2018-05-25 03:00 47 42 42 83 190° 9 - - 30.08 0 None
2018-05-25 02:00 46 42 42 83 190° 8 - - 30.09 0 None
2018-05-25 01:00 46 41 41 84 200° 9 - - 30.08 0 None

Support USWX by starting your Amazon purchase here.